^^

Nearby METAR Reports

 

EGHH - Bournemouth Airp, United Kingdom
Distance from station: S 10mi, 17km
Updated: 20/04/2019 19:50
Clear
Clear
 Wind from SSW
Wind: SSW 2 mph , 4 km/h
Temperature: 19°C
Dew Point: 6°C
Humidity: 43%
Barometer: 1026 hPa
Summary: Clear
Visibility: greater than 7 miles , 10 km
2019/04/20 18:50 EGHH 201850Z 20002KT CAVOK 19/06 Q1026
EGDM - Boscombe Down, United Kingdom
Distance from station: N 16mi, 26km
Updated: 20/04/2019 18:50
Clear
Clear
 Wind from N
Wind: N 9 mph , 15 km/h
Temperature: 21°C
Dew Point: 8°C
Humidity: 43%
Barometer: 1027 hPa
Clouds: Clear
Visibility: 6 miles , 10 km
2019/04/20 17:50 EGDM 201750Z AUTO 01008KT 9999 NCD 21/08 Q1027 RERA
 
EGVP - Middle Wallop, United Kingdom
Distance from station: NE 17mi, 27km
Updated: 20/04/2019 18:50
Clear
Clear
 Wind from NNE
Wind: NNE 7 mph , 11 km/h
Temperature: 23°C
Dew Point: 5°C
Humidity: 31%
Barometer: 1026 hPa
Clouds: Clear
Visibility: 6 miles , 10 km
2019/04/20 17:50 EGVP 201750Z AUTO 03006KT 9999 // NCD 23/05 Q1026
EGHI - Southampton Wx C, United Kingdom
Distance from station: E 19mi, 31km
Updated: 20/04/2019 19:50
Clear
Clear
 Wind from varies
Wind: varies 3 mph , 6 km/h
Temperature: 17°C
Dew Point: 6°C
Humidity: 49%
Barometer: 1026 hPa
Summary: Clear
Visibility: greater than 7 miles , 10 km
2019/04/20 18:50 EGHI 201850Z VRB03KT CAVOK 17/06 Q1026
 
EGDY - Yeovilton (navy), United Kingdom
Distance from station: W 36mi, 58km
Updated: 20/04/2019 18:50
Clear
Clear
 Wind from NNE
Wind: NNE 8 mph , 13 km/h
Temperature: 21°C
Dew Point: 8°C
Humidity: 43%
Barometer: 1027 hPa
Clouds: Clear
Visibility: 6 miles , 10 km
2019/04/20 17:50 EGDY 201750Z AUTO 02007KT 9999 NCD 21/08 Q1027
EGUO - Colerne Raf, United Kingdom
Distance from station: NNW 41mi, 66km
Updated: 14/02/2019 22:50
NOT Current
Clear
Clear
 Wind from ENE
Wind: ENE 1 mph , 2 km/h
Temperature: 1°C
Dew Point: 0°C
Humidity: 93%
Barometer: 1029 hPa
Summary: Clear
Visibility: greater than 7 miles , 10 km
2019/02/14 22:50 EGUO 142250Z 06001KT CAVOK 01/00 Q1029 BLU NOSIG
 
EGVO - Odiham Raf, United Kingdom
Distance from station: ENE 42mi, 68km
Updated: 20/04/2019 18:50
Clear
Clear
 Wind from E
Wind: E 5 mph , 7 km/h
Temperature: 21°C
Dew Point: 7°C
Humidity: 40%
Barometer: 1027 hPa
Clouds: Clear
Visibility: 6 miles , 10 km
2019/04/20 17:50 EGVO 201750Z AUTO 09004KT 9999 NCD 21/07 Q1027
EGGD - Bristol/Lulsgate, United Kingdom
Distance from station: NW 50mi, 81km
Updated: 20/04/2019 19:50
Clear
Clear
 Wind from NNE
Wind: NNE 6 mph , 9 km/h
Temperature: 18°C
Dew Point: 7°C
Humidity: 49%
Barometer: 1028 hPa
Clouds: Clear
Visibility: 6 miles , 10 km
2019/04/20 18:50 EGGD 201850Z AUTO 02005KT 9999 NCD 18/07 Q1028